createdAt,value
2018-04-19T00:01:40.892Z,48.77
2018-04-19T00:04:07.040Z,52.10
2018-04-19T00:06:33.159Z,44.77
2018-04-19T00:09:00.108Z,38.20
2018-04-19T00:11:26.959Z,43.60
2018-04-19T00:13:53.835Z,48.80
2018-04-19T00:16:20.701Z,43.80
2018-04-19T00:18:46.783Z,40.23
2018-04-19T00:21:12.920Z,42.30
2018-04-19T00:23:39.172Z,41.67
2018-04-19T00:26:05.382Z,45.33
2018-04-19T00:28:31.512Z,44.20
2018-04-19T00:30:57.606Z,48.57
2018-04-19T00:33:23.683Z,44.77
2018-04-19T00:35:49.799Z,52.53
2018-04-19T00:38:15.910Z,55.50
2018-04-19T00:40:41.983Z,50.30
2018-04-19T00:43:08.107Z,43.43
2018-04-19T00:45:34.915Z,42.33
2018-04-19T00:48:01.001Z,45.20
2018-04-19T00:50:27.875Z,46.53
2018-04-19T00:53:06.230Z,46.10
2018-04-19T00:55:32.336Z,46.90
2018-04-19T00:57:58.409Z,35.63
2018-04-19T01:00:24.494Z,42.30
2018-04-19T01:02:51.339Z,42.43
2018-04-19T01:05:18.159Z,45.33
2018-04-19T01:07:44.235Z,42.63
2018-04-19T01:10:11.075Z,42.57
2018-04-19T01:12:37.173Z,46.07
2018-04-19T01:15:03.249Z,51.23
2018-04-19T01:17:29.368Z,51.80
2018-04-19T01:19:55.445Z,45.97
2018-04-19T01:22:22.275Z,45.87
2018-04-19T01:24:48.397Z,45.80
2018-04-19T01:27:14.527Z,44.40
2018-04-19T01:29:40.599Z,42.00
2018-04-19T01:32:07.459Z,50.20
2018-04-19T01:34:34.303Z,44.13
2018-04-19T01:37:00.412Z,44.43
2018-04-19T01:39:26.566Z,48.33
2018-04-19T01:41:52.661Z,46.20
2018-04-19T01:44:18.752Z,40.77
2018-04-19T01:46:45.617Z,41.33
2018-04-19T01:49:12.476Z,41.13
2018-04-19T01:51:39.305Z,46.43
2018-04-19T01:54:05.416Z,45.40
2018-04-19T01:56:31.499Z,46.33
2018-04-19T01:58:58.321Z,46.50
2018-04-19T02:01:24.411Z,43.00
2018-04-19T02:03:50.488Z,47.13
2018-04-19T02:06:16.617Z,40.47
2018-04-19T02:08:42.731Z,49.53
2018-04-19T02:11:08.824Z,43.97
2018-04-19T02:13:34.921Z,46.20
2018-04-19T02:16:01.049Z,51.17
2018-04-19T02:18:27.152Z,39.87
2018-04-19T02:20:53.295Z,39.23
2018-04-19T02:23:20.172Z,53.77
2018-04-19T02:25:46.263Z,40.43
2018-04-19T02:28:12.347Z,42.73
2018-04-19T02:30:53.426Z,40.03
2018-04-19T02:33:20.323Z,47.73
2018-04-19T02:35:46.410Z,47.70
2018-04-19T02:38:13.259Z,45.30
2018-04-19T02:40:39.383Z,49.93
2018-04-19T02:43:05.458Z,51.70
2018-04-19T02:45:31.554Z,42.83
2018-04-19T02:47:57.639Z,40.70
2018-04-19T02:50:23.708Z,39.93
2018-04-19T02:52:49.808Z,45.57
2018-04-19T02:55:15.878Z,41.73
2018-04-19T02:57:41.997Z,44.03
2018-04-19T03:00:08.100Z,51.70
2018-04-19T03:02:34.920Z,51.20
2018-04-19T03:05:01.048Z,46.80
2018-04-19T03:07:27.163Z,38.40
2018-04-19T03:09:53.239Z,50.67
2018-04-19T03:12:19.323Z,44.43
2018-04-19T03:14:45.429Z,52.63
2018-04-19T03:17:11.508Z,51.60
2018-04-19T03:19:37.586Z,46.60
2018-04-19T03:22:03.686Z,45.27
2018-04-19T03:24:29.762Z,46.37
2018-04-19T03:26:55.848Z,42.37
2018-04-19T03:29:21.964Z,45.40
2018-04-19T03:31:48.792Z,47.07
2018-04-19T03:34:14.898Z,48.77
2018-04-19T03:36:41.010Z,40.50
2018-04-19T03:39:07.834Z,48.60
2018-04-19T03:41:33.963Z,46.20
2018-04-19T03:44:00.102Z,47.23
2018-04-19T03:46:26.259Z,51.17
2018-04-19T03:48:53.118Z,48.30
2018-04-19T03:51:19.193Z,48.80
2018-04-19T03:53:45.451Z,52.27
2018-04-19T03:56:11.567Z,47.90
2018-04-19T03:58:37.649Z,45.90
2018-04-19T04:01:03.816Z,52.60
2018-04-19T04:03:30.079Z,41.27
2018-04-19T04:05:56.222Z,45.90
2018-04-19T04:08:22.390Z,58.23
2018-04-19T04:10:48.472Z,47.87
2018-04-19T04:13:15.375Z,50.53
2018-04-19T04:15:41.454Z,51.40
2018-04-19T04:18:20.691Z,45.57
2018-04-19T04:20:59.091Z,46.57
2018-04-19T04:23:38.251Z,48.73
2018-04-19T04:26:04.322Z,49.37
2018-04-19T04:28:31.162Z,57.97
2018-04-19T04:30:57.260Z,53.17
2018-04-19T04:33:23.327Z,51.87
2018-04-19T04:35:49.422Z,65.80
2018-04-19T04:38:15.513Z,62.57
2018-04-19T04:40:41.592Z,52.80
2018-04-19T04:43:07.721Z,50.50
2018-04-19T04:45:33.835Z,53.40
2018-04-19T04:47:59.933Z,54.90
2018-04-19T04:50:26.010Z,54.27
2018-04-19T04:52:52.074Z,47.23
2018-04-19T04:55:18.174Z,50.73
2018-04-19T04:57:44.311Z,48.37
2018-04-19T05:00:10.429Z,48.17
2018-04-19T05:02:36.618Z,49.13
2018-04-19T05:05:03.468Z,55.97
2018-04-19T05:07:30.346Z,54.93
2018-04-19T05:09:56.425Z,48.03
2018-04-19T05:12:22.555Z,49.37
2018-04-19T05:14:48.637Z,56.67
2018-04-19T05:17:15.471Z,57.17
2018-04-19T05:19:41.586Z,54.13
2018-04-19T05:22:07.698Z,57.67
2018-04-19T05:24:33.790Z,51.60
2018-04-19T05:26:59.902Z,54.13
2018-04-19T05:29:26.040Z,54.70
2018-04-19T05:31:52.193Z,47.80
2018-04-19T05:34:18.364Z,51.30
2018-04-19T05:36:45.191Z,54.67
2018-04-19T05:39:11.293Z,47.57
2018-04-19T05:41:37.367Z,55.13
2018-04-19T05:44:03.564Z,49.90
2018-04-19T05:46:29.718Z,49.70
2018-04-19T05:48:55.842Z,50.97
2018-04-19T05:51:22.006Z,46.13
2018-04-19T05:53:48.106Z,49.20
2018-04-19T05:56:14.278Z,43.50
2018-04-19T05:58:40.442Z,50.83
2018-04-19T06:01:06.644Z,53.60
2018-04-19T06:03:32.795Z,49.20
2018-04-19T06:05:58.901Z,47.00
2018-04-19T06:08:25.055Z,46.63
2018-04-19T06:10:51.211Z,43.80
2018-04-19T06:13:17.344Z,72.43
2018-04-19T06:15:43.466Z,42.57
2018-04-19T06:18:10.548Z,39.53
2018-04-19T06:20:36.677Z,46.07
2018-04-19T06:23:02.816Z,41.93
2018-04-19T06:25:30.707Z,61.70
2018-04-19T06:27:58.600Z,50.20
2018-04-19T06:30:26.643Z,55.23
2018-04-19T06:32:54.570Z,42.37
2018-04-19T06:35:22.617Z,41.13
2018-04-19T06:37:50.533Z,50.47
2018-04-19T06:40:18.398Z,67.40
2018-04-19T06:42:46.378Z,37.73
2018-04-19T06:45:14.256Z,40.07
2018-04-19T06:47:42.091Z,24.37
2018-04-19T06:50:09.998Z,21.60
2018-04-19T06:52:38.042Z,32.13
2018-04-19T06:55:05.966Z,33.53
2018-04-19T06:57:33.851Z,36.43
2018-04-19T07:00:01.720Z,40.57
2018-04-19T07:02:29.650Z,39.17
2018-04-19T07:04:57.491Z,33.50
2018-04-19T07:07:25.372Z,25.13
2018-04-19T07:09:55.431Z,23.63
2018-04-19T07:12:23.374Z,32.47
2018-04-19T07:14:51.262Z,33.57
2018-04-19T07:17:19.135Z,32.50
2018-04-19T07:19:47.786Z,31.77
2018-04-19T07:22:15.734Z,29.27
2018-04-19T07:24:43.604Z,24.73
2018-04-19T07:27:11.478Z,27.43
2018-04-19T07:29:39.345Z,26.70
2018-04-19T07:32:07.205Z,22.97
2018-04-19T07:34:35.150Z,19.30
2018-04-19T07:37:03.007Z,22.67
2018-04-19T07:39:31.363Z,27.40
2018-04-19T07:41:59.286Z,22.63
2018-04-19T07:44:27.151Z,20.43
2018-04-19T07:46:54.981Z,19.70
2018-04-19T07:49:22.849Z,33.53
2018-04-19T07:51:50.697Z,35.67
2018-04-19T07:54:18.526Z,27.10
2018-04-19T07:56:46.381Z,19.87
2018-04-19T07:59:14.209Z,23.10
2018-04-19T08:01:42.029Z,21.03
2018-04-19T08:04:09.889Z,21.40
2018-04-19T08:06:37.736Z,22.90
2018-04-19T08:09:06.609Z,17.27
2018-04-19T08:11:34.485Z,19.00
2018-04-19T08:14:02.334Z,19.03
2018-04-19T08:16:30.179Z,18.13
2018-04-19T08:18:58.053Z,28.03
2018-04-19T08:21:25.918Z,23.83
2018-04-19T08:23:53.771Z,18.03
2018-04-19T08:26:21.941Z,15.37
2018-04-19T08:28:49.789Z,14.70
2018-04-19T08:31:17.656Z,22.60
2018-04-19T08:33:45.526Z,15.77
2018-04-19T08:36:13.398Z,18.23
2018-04-19T08:38:42.237Z,24.13
2018-04-19T08:41:12.963Z,31.73
2018-04-19T08:43:40.828Z,19.33
2018-04-19T08:46:10.869Z,15.93
2018-04-19T08:48:39.191Z,18.60
2018-04-19T08:51:08.358Z,20.60
2018-04-19T08:53:37.544Z,16.90
2018-04-19T08:56:05.563Z,15.37
2018-04-19T08:58:33.419Z,25.20
2018-04-19T09:01:05.404Z,14.80
2018-04-19T09:03:33.261Z,25.30
2018-04-19T09:06:03.366Z,14.57
2018-04-19T09:08:31.358Z,12.43
2018-04-19T09:10:59.212Z,15.03
2018-04-19T09:13:27.561Z,15.30
2018-04-19T09:15:59.167Z,13.37
2018-04-19T09:18:28.994Z,12.83
2018-04-19T09:20:57.874Z,23.57
2018-04-19T09:23:26.071Z,16.30
2018-04-19T09:25:53.956Z,16.13
2018-04-19T09:28:21.837Z,11.93
2018-04-19T09:30:49.712Z,15.40
2018-04-19T09:33:17.559Z,20.67
2018-04-19T09:35:45.431Z,11.40
2018-04-19T09:38:19.712Z,10.27
2018-04-19T09:40:50.074Z,15.80
2018-04-19T09:43:18.220Z,13.47
2018-04-19T09:45:47.366Z,20.27
2018-04-19T09:48:16.330Z,13.67
2018-04-19T09:50:44.353Z,21.10
2018-04-19T09:53:12.233Z,18.50
2018-04-19T09:55:40.078Z,12.50
2018-04-19T09:58:07.985Z,42.30
2018-04-19T10:00:42.237Z,12.90
2018-04-19T10:03:16.428Z,13.80
2018-04-19T10:05:46.256Z,11.70
2018-04-19T10:08:14.105Z,16.03
2018-04-19T10:10:41.973Z,14.40
2018-04-19T10:13:09.827Z,13.27
2018-04-19T10:15:37.721Z,13.77
2018-04-19T10:18:05.637Z,13.97
2018-04-19T10:20:33.503Z,14.57
2018-04-19T10:23:01.376Z,11.20
2018-04-19T10:25:29.217Z,16.80
2018-04-19T10:27:57.134Z,13.50
2018-04-19T10:30:24.977Z,12.43
2018-04-19T10:32:52.838Z,16.73
2018-04-19T10:35:20.693Z,13.07
2018-04-19T10:37:48.554Z,11.93
2018-04-19T10:40:16.410Z,14.77
2018-04-19T10:42:44.294Z,8.60
2018-04-19T10:45:12.141Z,16.33
2018-04-19T10:47:39.975Z,16.90
2018-04-19T10:50:07.850Z,15.20
2018-04-19T10:52:35.682Z,13.03
2018-04-19T10:55:03.506Z,10.63
2018-04-19T10:57:31.357Z,12.40
2018-04-19T10:59:59.277Z,9.57
2018-04-19T11:02:27.112Z,16.73
2018-04-19T11:04:54.981Z,12.10
2018-04-19T11:07:22.818Z,21.00
2018-04-19T11:09:50.645Z,24.40
2018-04-19T11:12:18.519Z,28.30
2018-04-19T11:14:46.353Z,10.13
2018-04-19T11:17:14.190Z,11.50
2018-04-19T11:19:42.081Z,13.07
2018-04-19T11:22:09.902Z,38.80
2018-04-19T11:24:37.808Z,24.77
2018-04-19T11:27:05.655Z,12.90
2018-04-19T11:29:33.490Z,13.67
2018-04-19T11:32:01.420Z,9.97
2018-04-19T11:34:29.249Z,11.17
2018-04-19T11:36:57.153Z,14.20
2018-04-19T11:39:25.045Z,12.60
2018-04-19T11:41:52.882Z,11.97
2018-04-19T11:44:20.770Z,13.60
2018-04-19T11:46:48.642Z,10.87
2018-04-19T11:49:16.798Z,8.67
2018-04-19T11:51:44.689Z,11.00
2018-04-19T11:54:12.531Z,9.33
2018-04-19T11:56:40.399Z,12.07
2018-04-19T11:59:08.301Z,15.83
2018-04-19T12:01:36.154Z,11.90
2018-04-19T12:04:04.028Z,17.20
2018-04-19T12:06:31.950Z,22.43
2018-04-19T12:08:59.847Z,10.20
2018-04-19T12:11:27.727Z,9.17
2018-04-19T12:13:55.614Z,15.17
2018-04-19T12:16:23.541Z,9.37
2018-04-19T12:18:51.421Z,19.27
2018-04-19T12:21:19.358Z,17.13
2018-04-19T12:23:47.303Z,12.67
2018-04-19T12:26:15.500Z,6.83
2018-04-19T12:28:43.400Z,8.33
2018-04-19T12:31:11.235Z,12.60
2018-04-19T12:33:39.097Z,17.67
2018-04-19T12:36:06.994Z,17.17
2018-04-19T12:38:34.862Z,12.43
2018-04-19T12:41:02.710Z,9.80
2018-04-19T12:43:30.635Z,8.07
2018-04-19T12:45:58.510Z,8.10
2018-04-19T12:48:26.342Z,11.40
2018-04-19T12:50:54.321Z,9.10
2018-04-19T12:53:22.265Z,17.27
2018-04-19T12:55:50.150Z,18.40
2018-04-19T12:58:18.020Z,21.70
2018-04-19T13:00:45.869Z,18.00
2018-04-19T13:03:13.717Z,16.07
2018-04-19T13:05:41.605Z,5.90
2018-04-19T13:08:09.454Z,8.90
2018-04-19T13:10:37.297Z,10.10
2018-04-19T13:13:05.182Z,6.37
2018-04-19T13:15:33.018Z,20.47
2018-04-19T13:18:00.871Z,7.20
2018-04-19T13:20:28.809Z,5.50
2018-04-19T13:22:56.646Z,8.03
2018-04-19T13:25:24.650Z,8.63
2018-04-19T13:27:52.582Z,5.37
2018-04-19T13:30:20.434Z,4.37
2018-04-19T13:32:48.274Z,4.23
2018-04-19T13:35:16.158Z,5.73
2018-04-19T13:37:43.998Z,3.23
2018-04-19T13:40:12.618Z,3.47
2018-04-19T13:42:40.546Z,7.93
2018-04-19T13:45:10.079Z,4.97
2018-04-19T13:47:37.930Z,7.67
2018-04-19T13:50:05.810Z,4.87
2018-04-19T13:52:33.661Z,4.40
2018-04-19T13:55:01.518Z,9.03
2018-04-19T13:57:29.410Z,8.27
2018-04-19T13:59:57.262Z,7.83
2018-04-19T14:02:25.175Z,8.93
2018-04-19T14:04:53.058Z,5.53
2018-04-19T14:07:20.921Z,7.40
2018-04-19T14:09:48.795Z,8.37
2018-04-19T14:12:16.666Z,11.90
2018-04-19T14:14:44.530Z,6.73
2018-04-19T14:17:12.401Z,7.27
2018-04-19T14:19:40.293Z,7.27
2018-04-19T14:22:08.145Z,6.93
2018-04-19T14:24:35.999Z,5.63
2018-04-19T14:27:03.883Z,4.30
2018-04-19T14:29:31.764Z,9.53
2018-04-19T14:31:59.598Z,5.23
2018-04-19T14:34:27.468Z,7.57
2018-04-19T14:36:55.318Z,10.57
2018-04-19T14:39:23.207Z,9.43
2018-04-19T14:41:51.131Z,9.00
2018-04-19T14:44:19.904Z,5.67
2018-04-19T14:46:47.756Z,13.63
2018-04-19T14:49:15.631Z,7.07
2018-04-19T14:51:43.492Z,5.17
2018-04-19T14:54:11.345Z,9.67
2018-04-19T14:56:39.230Z,7.27
2018-04-19T14:59:07.087Z,4.73
2018-04-19T15:01:34.948Z,11.50
2018-04-19T15:04:02.850Z,8.10
2018-04-19T15:06:30.689Z,8.37
2018-04-19T15:08:58.549Z,8.77
2018-04-19T15:11:26.461Z,11.90
2018-04-19T15:13:54.314Z,14.70
2018-04-19T15:16:22.150Z,11.37
2018-04-19T15:18:50.036Z,15.00
2018-04-19T15:21:17.985Z,12.23
2018-04-19T15:23:45.845Z,71.70
2018-04-19T15:26:13.763Z,18.40
2018-04-19T15:28:41.617Z,9.97
2018-04-19T15:31:09.537Z,15.50
2018-04-19T15:33:37.381Z,12.20
2018-04-19T15:36:05.240Z,8.90
2018-04-19T15:38:33.157Z,16.33
2018-04-19T15:41:01.002Z,10.43
2018-04-19T15:43:28.862Z,11.33
2018-04-19T15:45:56.776Z,11.07
2018-04-19T15:48:24.637Z,9.13
2018-04-19T15:50:52.509Z,10.13
2018-04-19T15:53:21.333Z,13.67
2018-04-19T15:55:49.211Z,7.27
2018-04-19T15:58:17.055Z,9.80
2018-04-19T16:00:44.939Z,11.63
2018-04-19T16:03:12.887Z,19.03
2018-04-19T16:05:40.737Z,23.30
2018-04-19T16:08:08.626Z,11.73
2018-04-19T16:10:36.496Z,12.13
2018-04-19T16:13:04.341Z,10.20
2018-04-19T16:15:32.210Z,14.07
2018-04-19T16:18:00.086Z,12.97
2018-04-19T16:20:27.970Z,8.97
2018-04-19T16:22:55.814Z,11.13
2018-04-19T16:25:23.722Z,11.70
2018-04-19T16:27:51.634Z,12.17
2018-04-19T16:30:19.542Z,10.57
2018-04-19T16:32:47.405Z,10.83
2018-04-19T16:35:15.342Z,16.70
2018-04-19T16:37:43.192Z,15.30
2018-04-19T16:40:11.066Z,11.07
2018-04-19T16:42:38.919Z,17.10
2018-04-19T16:45:06.773Z,9.37
2018-04-19T16:47:34.646Z,12.73
2018-04-19T16:50:02.506Z,14.40
2018-04-19T16:52:34.015Z,13.27
2018-04-19T16:55:01.967Z,8.33
2018-04-19T16:57:30.820Z,12.57
2018-04-19T16:59:58.766Z,6.17
2018-04-19T17:02:26.653Z,7.33
2018-04-19T17:04:54.534Z,11.37
2018-04-19T17:07:22.426Z,17.63
2018-04-19T17:09:51.369Z,14.07
2018-04-19T17:12:19.250Z,9.67
2018-04-19T17:14:47.096Z,12.27
2018-04-19T17:17:14.981Z,12.57
2018-04-19T17:19:43.658Z,9.30
2018-04-19T17:22:11.494Z,9.47
2018-04-19T17:24:39.414Z,11.20
2018-04-19T17:27:07.329Z,15.17
2018-04-19T17:29:35.284Z,14.73
2018-04-19T17:32:04.195Z,8.83
2018-04-19T17:34:32.769Z,12.87
2018-04-19T17:37:00.626Z,12.70
2018-04-19T17:39:28.810Z,14.27
2018-04-19T17:41:58.199Z,19.50
2018-04-19T17:44:26.510Z,8.30
2018-04-19T17:46:54.597Z,14.87
2018-04-19T17:49:22.828Z,14.30
2018-04-19T17:51:51.140Z,14.97
2018-04-19T17:54:19.111Z,14.07
2018-04-19T17:56:47.005Z,12.83
2018-04-19T17:59:15.194Z,18.37
2018-04-19T18:01:43.190Z,29.03
2018-04-19T18:04:11.443Z,14.50
2018-04-19T18:06:39.514Z,10.60
2018-04-19T18:09:07.765Z,11.87
2018-04-19T18:11:36.015Z,13.50
2018-04-19T18:14:04.270Z,17.50
2018-04-19T18:16:32.208Z,18.03
2018-04-19T18:19:00.544Z,12.73
2018-04-19T18:21:28.778Z,11.20
2018-04-19T18:23:56.661Z,16.93
2018-04-19T18:26:24.999Z,12.90
2018-04-19T18:28:52.988Z,19.10
2018-04-19T18:31:20.864Z,15.80
2018-04-19T18:33:48.850Z,15.53
2018-04-19T18:36:16.835Z,14.60
2018-04-19T18:38:44.690Z,15.90
2018-04-19T18:41:12.764Z,17.73
2018-04-19T18:43:40.631Z,14.20
2018-04-19T18:46:08.511Z,17.17
2018-04-19T18:48:36.786Z,17.77
2018-04-19T18:51:04.711Z,15.17
2018-04-19T18:53:32.557Z,14.80
2018-04-19T18:56:00.875Z,16.27
2018-04-19T18:58:28.796Z,12.77
2018-04-19T19:01:01.471Z,10.87
2018-04-19T19:03:29.654Z,18.20
2018-04-19T19:05:57.671Z,17.03
2018-04-19T19:08:25.846Z,19.67
2018-04-19T19:10:54.340Z,18.93
2018-04-19T19:13:22.770Z,14.50
2018-04-19T19:16:05.893Z,14.50
2018-04-19T19:18:40.062Z,16.90
2018-04-19T19:21:08.408Z,13.97
2018-04-19T19:23:36.275Z,15.40
2018-04-19T19:26:04.245Z,20.67
2018-04-19T19:28:32.525Z,14.43
2018-04-19T19:31:00.466Z,27.60
2018-04-19T19:33:28.531Z,20.53
2018-04-19T19:35:56.496Z,14.33
2018-04-19T19:38:24.401Z,23.30
2018-04-19T19:40:52.675Z,19.77
2018-04-19T19:43:21.097Z,28.57
2018-04-19T19:45:49.002Z,17.67
2018-04-19T19:48:17.005Z,22.57
2018-04-19T19:50:44.944Z,27.40
2018-04-19T19:53:27.781Z,14.30
2018-04-19T19:55:56.226Z,33.83
2018-04-19T19:58:24.225Z,21.90
2018-04-19T20:00:52.458Z,20.77
2018-04-19T20:03:20.807Z,28.80
2018-04-19T20:05:48.958Z,23.80
2018-04-19T20:08:17.110Z,15.20
2018-04-19T20:10:45.354Z,25.27
2018-04-19T20:13:13.534Z,23.67
2018-04-19T20:15:41.467Z,26.13
2018-04-19T20:18:09.337Z,21.90
2018-04-19T20:20:37.476Z,22.50
2018-04-19T20:23:05.389Z,33.37
2018-04-19T20:25:33.252Z,37.30
2018-04-19T20:28:01.154Z,33.87
2018-04-19T20:30:29.364Z,23.30
2018-04-19T20:32:57.391Z,16.80
2018-04-19T20:35:26.033Z,13.80
2018-04-19T20:37:54.491Z,22.70
2018-04-19T20:40:23.003Z,18.43
2018-04-19T20:42:51.413Z,17.43
2018-04-19T20:45:19.346Z,12.70
2018-04-19T20:47:47.418Z,13.77
2018-04-19T20:50:15.258Z,20.40
2018-04-19T20:52:43.266Z,30.03
2018-04-19T20:55:11.116Z,17.30
2018-04-19T20:57:39.068Z,13.90
2018-04-19T21:00:06.939Z,21.77
2018-04-19T21:02:34.777Z,12.60
2018-04-19T21:05:02.622Z,21.67
2018-04-19T21:07:30.511Z,32.30
2018-04-19T21:09:58.362Z,21.20
2018-04-19T21:12:26.405Z,19.90
2018-04-19T21:14:54.295Z,12.83
2018-04-19T21:17:22.279Z,16.30
2018-04-19T21:19:50.134Z,12.90
2018-04-19T21:22:18.209Z,12.20
2018-04-19T21:24:46.046Z,18.40
2018-04-19T21:27:14.009Z,15.07
2018-04-19T21:29:41.881Z,14.07
2018-04-19T21:32:10.014Z,17.90
2018-04-19T21:34:37.917Z,14.80
2018-04-19T21:37:05.826Z,15.43
2018-04-19T21:39:33.691Z,14.00
2018-04-19T21:42:01.595Z,15.13
2018-04-19T21:44:29.468Z,15.67
2018-04-19T21:46:57.317Z,20.93
2018-04-19T21:49:25.156Z,15.00
2018-04-19T21:51:53.042Z,15.87
2018-04-19T21:54:20.908Z,15.63
2018-04-19T21:56:48.765Z,16.23
2018-04-19T21:59:16.626Z,15.30
2018-04-19T22:01:44.468Z,13.47
2018-04-19T22:04:12.397Z,16.17
2018-04-19T22:06:40.343Z,12.43
2018-04-19T22:09:08.299Z,12.43
2018-04-19T22:11:36.149Z,17.17
2018-04-19T22:14:04.234Z,14.00
2018-04-19T22:16:32.065Z,12.90
2018-04-19T22:18:59.918Z,16.60
2018-04-19T22:21:27.779Z,10.77
2018-04-19T22:23:55.646Z,13.30
2018-04-19T22:26:23.510Z,28.83
2018-04-19T22:28:51.385Z,18.67
2018-04-19T22:31:19.229Z,15.43
2018-04-19T22:33:47.078Z,15.80
2018-04-19T22:36:14.998Z,13.17
2018-04-19T22:38:42.866Z,16.73
2018-04-19T22:41:10.707Z,19.20
2018-04-19T22:43:38.571Z,17.43
2018-04-19T22:46:06.406Z,22.40
2018-04-19T22:48:34.254Z,28.00
2018-04-19T22:51:02.127Z,18.50
2018-04-19T22:53:30.030Z,25.80
2018-04-19T22:55:57.891Z,20.00
2018-04-19T22:58:25.766Z,30.40
2018-04-19T23:00:53.594Z,20.83
2018-04-19T23:03:21.437Z,36.13
2018-04-19T23:05:49.370Z,33.90
2018-04-19T23:08:17.194Z,21.97
2018-04-19T23:10:45.233Z,22.83
2018-04-19T23:13:13.250Z,20.57
2018-04-19T23:15:41.675Z,17.57
2018-04-19T23:18:09.696Z,20.60
2018-04-19T23:20:37.705Z,22.87
2018-04-19T23:23:05.687Z,29.60
2018-04-19T23:25:33.645Z,18.27
2018-04-19T23:28:01.601Z,17.00
2018-04-19T23:30:29.620Z,21.23
2018-04-19T23:32:57.680Z,20.13
2018-04-19T23:35:25.678Z,20.03
2018-04-19T23:37:53.770Z,26.50
2018-04-19T23:40:21.642Z,18.00
2018-04-19T23:42:49.529Z,26.10
2018-04-19T23:45:17.534Z,26.40
2018-04-19T23:47:45.426Z,18.70
2018-04-19T23:50:13.390Z,26.47
2018-04-19T23:52:41.214Z,20.20
2018-04-19T23:55:09.058Z,21.20
2018-04-19T23:57:36.930Z,27.57
